Kivalina, AK

11:09 AM AKST on March 06, 2015 (GMT -0900)
Kivalina | Change Station
CLOSE
Current Station
Airport
Location: Kivalina,
Elevation: 10 ft
Nearby Weather Stations
Active Advisory: Winter Storm Warning

Elev 10 ft 67.73 °N, 164.55 °W | Updated 9 minutes ago

Light Snow
Light Snow
1 °F
Feels Like -17 °F
N
14
Wind Variable Wind from ENE

Today
High -- | Low -- °F
--% Chance of Precip.
Yesterday
High -- | Low -- °F
Precip. -- in
8:55 AM 7:24 PM
Full, 99% visible
Pressure 29.80 in
Visibility 1.8 miles
Clouds Overcast 1900 ft
Windchill -17 °F
Dew Point -4 °F
Humidity 79%
Rainfall 0.00 in
Snow Depth Not available.
UV 0 out of 12
Pollen Not available.
Air Quality Not available.
Flu Activity Not available.
SPECI PAVL 062000Z AUTO 07012KT 1 3/4SM -SN OVC019 M17/M20 A2980 RMK AO2 P0000 T11721200 TSNO

More Conditions Fewer Conditions

Pressure 29.80 in
Visibility 1.8 miles
Clouds Overcast 1900 ft
Windchill -17 °F
Dew Point -4 °F
Humidity 79%
Rainfall 0.00 in
Snow Depth Not available.
UV 0 out of 12
Pollen Not available.
Air Quality Not available.
Flu Activity Not available.
SPECI PAVL 062000Z AUTO 07012KT 1 3/4SM -SN OVC019 M17/M20 A2980 RMK AO2 P0000 T11721200 TSNO

More Conditions Fewer Conditions

10-Day Weather Forecast

Almanac

Astronomy

Mar. 06, 2015 Rise Set
Actual Time
Civil Twilight
Nautical Twilight
Astronomical Twilight
Moon
Length of Visible Light
Length of Day
Tomorrow will be .
, % of the Moon is Illuminated

Today's Extremes

State Highs State Lows

Community

WunderPhotos

Upload Photos

1,803,386 photos uploaded!

WunderBlogs® & News

Nearby

Air Quality

  Air Quality AQ Index Pollutant
Not available.

Snow Depth

Station Depth Elevation

Earthquake Activity

City Distance Mag. Time & Date
Minimum magnitude displayed is 2.5.

Coastal Water Temperatures

Place Temperature

Nearby Weather Stations

Winter Storm Warning
Statement as of 4:19 AM AKST on March 06, 2015

... Winter Storm Warning remains in effect from noon today to 3 PM
akst Saturday...

A Winter Storm Warning for heavy snow and blowing snow remains in
effect from noon today to 3 PM akst Saturday.

* Location... in the Kobuk valley.

* Snow... 6 to 12 inches

* blowing snow... reducing visibility to one half mile or less at
times

* timing... snow heavy at times will begin this afternoon and
continue through Saturday afternoon. Winds will increase this
afternoon and continue through Saturday afternoon.

* Impacts... travel and outdoor activities will be difficult

Precautionary/preparedness actions...

A Winter Storm Warning means one or more significant winter
weather hazards are occurring or expected.